createdAt,value
2019-03-30T00:00:58.657Z,15.90
2019-03-30T00:03:29.546Z,16.57
2019-03-30T00:06:00.457Z,16.57
2019-03-30T00:08:31.492Z,16.67
2019-03-30T00:11:02.339Z,15.33
2019-03-30T00:13:33.498Z,16.20
2019-03-30T00:16:04.592Z,14.50
2019-03-30T00:18:35.460Z,15.27
2019-03-30T00:21:06.612Z,15.20
2019-03-30T00:23:37.828Z,17.13
2019-03-30T00:26:08.866Z,15.80
2019-03-30T00:28:39.932Z,15.93
2019-03-30T00:31:10.810Z,16.97
2019-03-30T00:33:42.128Z,15.40
2019-03-30T00:36:13.095Z,17.17
2019-03-30T00:38:43.917Z,17.70
2019-03-30T00:41:15.058Z,18.63
2019-03-30T00:43:46.160Z,19.73
2019-03-30T00:46:17.267Z,22.23
2019-03-30T00:48:48.361Z,20.73
2019-03-30T00:51:19.410Z,18.43
2019-03-30T00:53:50.478Z,16.67
2019-03-30T00:56:21.442Z,18.00
2019-03-30T00:58:52.418Z,16.77
2019-03-30T01:01:23.703Z,16.17
2019-03-30T01:03:55.625Z,15.37
2019-03-30T01:06:26.496Z,15.20
2019-03-30T01:08:57.376Z,14.17
2019-03-30T01:11:28.668Z,14.23
2019-03-30T01:13:59.527Z,13.07
2019-03-30T01:16:30.372Z,14.77
2019-03-30T01:19:01.554Z,13.77
2019-03-30T01:21:32.446Z,13.73
2019-03-30T01:24:03.275Z,14.17
2019-03-30T01:26:35.670Z,13.30
2019-03-30T01:29:06.830Z,13.10
2019-03-30T01:31:38.158Z,12.33
2019-03-30T01:34:08.974Z,12.50
2019-03-30T01:36:39.991Z,12.67
2019-03-30T01:39:11.081Z,11.87
2019-03-30T01:41:42.571Z,11.43
2019-03-30T01:44:16.779Z,12.37
2019-03-30T01:46:48.143Z,11.97
2019-03-30T01:49:19.078Z,12.50
2019-03-30T01:51:49.972Z,10.97
2019-03-30T01:54:21.327Z,12.77
2019-03-30T01:56:52.558Z,13.07
2019-03-30T01:59:23.378Z,13.60
2019-03-30T02:01:54.609Z,12.80
2019-03-30T02:04:25.426Z,13.00
2019-03-30T02:06:56.437Z,13.57
2019-03-30T02:09:27.299Z,12.67
2019-03-30T02:11:58.340Z,14.13
2019-03-30T02:14:29.507Z,13.50
2019-03-30T02:17:00.583Z,14.00
2019-03-30T02:19:31.616Z,14.67
2019-03-30T02:22:02.924Z,13.63
2019-03-30T02:24:34.077Z,13.00
2019-03-30T02:27:05.250Z,12.97
2019-03-30T02:29:36.187Z,13.03
2019-03-30T02:32:08.317Z,13.83
2019-03-30T02:34:39.164Z,14.00
2019-03-30T02:37:10.100Z,11.70
2019-03-30T02:39:40.912Z,13.73
2019-03-30T02:42:12.036Z,13.27
2019-03-30T02:44:43.134Z,14.23
2019-03-30T02:47:14.271Z,14.80
2019-03-30T02:49:45.256Z,12.97
2019-03-30T02:52:16.570Z,13.57
2019-03-30T02:54:47.412Z,10.93
2019-03-30T02:57:18.526Z,12.40
2019-03-30T02:59:49.591Z,11.30
2019-03-30T03:02:20.630Z,11.50
2019-03-30T03:04:51.490Z,12.50
2019-03-30T03:07:23.529Z,13.20
2019-03-30T03:09:54.429Z,12.67
2019-03-30T03:12:25.542Z,12.83
2019-03-30T03:14:56.348Z,11.57
2019-03-30T03:17:27.375Z,10.90
2019-03-30T03:19:58.291Z,13.00
2019-03-30T03:22:29.277Z,12.03
2019-03-30T03:25:00.267Z,9.70
2019-03-30T03:27:31.725Z,13.50
2019-03-30T03:30:02.893Z,14.60
2019-03-30T03:32:33.712Z,13.37
2019-03-30T03:35:05.055Z,16.67
2019-03-30T03:37:45.379Z,11.83
2019-03-30T03:40:10.542Z,11.20
2019-03-30T03:42:41.466Z,11.77
2019-03-30T03:45:12.460Z,12.80
2019-03-30T03:47:43.597Z,13.37
2019-03-30T03:50:48.504Z,13.67
2019-03-30T03:53:19.382Z,14.73
2019-03-30T03:55:50.906Z,15.23
2019-03-30T03:58:24.921Z,14.70
2019-03-30T04:00:58.360Z,14.33
2019-03-30T04:03:32.302Z,15.33
2019-03-30T04:06:06.109Z,15.30
2019-03-30T04:08:37.045Z,14.97
2019-03-30T04:11:10.594Z,13.37
2019-03-30T04:13:43.750Z,14.20
2019-03-30T04:16:14.896Z,14.53
2019-03-30T04:18:48.307Z,16.17
2019-03-30T04:21:18.872Z,16.37
2019-03-30T04:23:54.046Z,15.70
2019-03-30T04:26:22.212Z,15.33
2019-03-30T04:28:53.305Z,14.50
2019-03-30T04:31:24.433Z,15.27
2019-03-30T04:33:55.390Z,13.67
2019-03-30T04:36:26.627Z,14.43
2019-03-30T04:38:57.804Z,11.90
2019-03-30T04:41:28.660Z,14.50
2019-03-30T04:43:59.782Z,13.80
2019-03-30T04:46:30.759Z,13.87
2019-03-30T04:49:02.993Z,13.60
2019-03-30T04:51:34.107Z,14.27
2019-03-30T04:54:04.933Z,13.30
2019-03-30T04:56:36.393Z,12.20
2019-03-30T04:59:07.607Z,12.97
2019-03-30T05:01:38.660Z,12.50
2019-03-30T05:04:09.737Z,12.70
2019-03-30T05:06:41.258Z,13.23
2019-03-30T05:09:12.098Z,13.40
2019-03-30T05:11:44.326Z,12.53
2019-03-30T05:14:15.450Z,14.00
2019-03-30T05:16:46.345Z,14.90
2019-03-30T05:19:17.337Z,13.30
2019-03-30T05:21:48.427Z,13.33
2019-03-30T05:24:19.352Z,13.67
2019-03-30T05:26:50.525Z,12.90
2019-03-30T05:29:21.526Z,15.00
2019-03-30T05:31:52.726Z,13.80
2019-03-30T05:34:23.703Z,14.83
2019-03-30T05:36:54.535Z,15.37
2019-03-30T05:39:25.455Z,16.13
2019-03-30T05:41:56.747Z,16.53
2019-03-30T05:44:27.803Z,16.20
2019-03-30T05:46:58.665Z,16.77
2019-03-30T05:49:29.795Z,16.47
2019-03-30T05:52:00.998Z,17.33
2019-03-30T05:54:32.155Z,16.70
2019-03-30T05:57:03.931Z,16.93
2019-03-30T05:59:35.003Z,15.73
2019-03-30T06:02:06.266Z,15.40
2019-03-30T06:04:37.323Z,16.37
2019-03-30T06:07:08.163Z,17.17
2019-03-30T06:09:39.167Z,16.50
2019-03-30T06:12:10.272Z,15.90
2019-03-30T06:14:41.544Z,17.27
2019-03-30T06:17:12.536Z,17.53
2019-03-30T06:19:43.611Z,18.57
2019-03-30T06:22:14.603Z,19.23
2019-03-30T06:24:45.493Z,20.13
2019-03-30T06:27:18.599Z,19.70
2019-03-30T06:30:18.445Z,21.83
2019-03-30T06:32:49.274Z,18.73
2019-03-30T06:35:20.208Z,23.53
2019-03-30T06:37:51.471Z,22.33
2019-03-30T06:40:22.536Z,23.23
2019-03-30T06:42:54.820Z,22.80
2019-03-30T06:45:26.022Z,25.93
2019-03-30T06:47:57.159Z,22.17
2019-03-30T06:50:28.047Z,21.70
2019-03-30T06:52:59.252Z,23.43
2019-03-30T06:55:30.072Z,19.67
2019-03-30T06:58:01.074Z,18.70
2019-03-30T07:00:35.499Z,18.37
2019-03-30T07:03:07.578Z,19.43
2019-03-30T07:05:42.098Z,18.27
2019-03-30T07:08:19.634Z,19.53
2019-03-30T07:10:50.559Z,16.70
2019-03-30T07:13:22.319Z,15.93
2019-03-30T07:15:54.892Z,17.40
2019-03-30T07:18:25.756Z,15.63
2019-03-30T07:20:56.793Z,16.17
2019-03-30T07:23:28.002Z,14.83
2019-03-30T07:25:58.849Z,14.43
2019-03-30T07:28:30.209Z,12.93
2019-03-30T07:31:01.250Z,14.73
2019-03-30T07:33:32.299Z,12.53
2019-03-30T07:36:03.459Z,13.17
2019-03-30T07:38:34.885Z,12.00
2019-03-30T07:41:05.763Z,14.33
2019-03-30T07:43:37.136Z,12.27
2019-03-30T07:46:08.165Z,10.57
2019-03-30T07:48:40.168Z,11.77
2019-03-30T07:51:11.131Z,12.50
2019-03-30T07:53:44.833Z,12.20
2019-03-30T07:56:14.839Z,11.53
2019-03-30T07:58:45.815Z,11.53
2019-03-30T08:01:17.019Z,11.77
2019-03-30T08:03:48.067Z,11.40
2019-03-30T08:06:18.916Z,11.50
2019-03-30T08:08:49.873Z,11.90
2019-03-30T08:11:20.969Z,12.33
2019-03-30T08:13:51.917Z,11.77
2019-03-30T08:16:22.753Z,12.03
2019-03-30T08:18:54.420Z,12.07
2019-03-30T08:21:25.639Z,11.73
2019-03-30T08:23:58.870Z,12.50
2019-03-30T08:26:30.039Z,11.60
2019-03-30T08:29:01.272Z,12.73
2019-03-30T08:31:32.091Z,11.30
2019-03-30T08:34:03.278Z,11.50
2019-03-30T08:36:34.619Z,10.10
2019-03-30T08:39:07.231Z,11.77
2019-03-30T08:41:38.187Z,11.60
2019-03-30T08:44:09.270Z,12.70
2019-03-30T08:46:40.084Z,11.07
2019-03-30T08:49:10.970Z,10.83
2019-03-30T08:51:41.884Z,12.57
2019-03-30T08:54:12.808Z,11.83
2019-03-30T08:56:43.643Z,10.40
2019-03-30T08:59:15.003Z,11.20
2019-03-30T09:01:46.083Z,11.93
2019-03-30T09:04:17.243Z,13.20
2019-03-30T09:06:48.081Z,12.33
2019-03-30T09:09:19.007Z,12.23
2019-03-30T09:11:50.145Z,10.63
2019-03-30T09:14:21.092Z,10.93
2019-03-30T09:16:52.883Z,10.30
2019-03-30T09:19:23.889Z,11.00
2019-03-30T09:21:54.772Z,12.00
2019-03-30T09:24:25.669Z,10.50
2019-03-30T09:26:56.778Z,9.70
2019-03-30T09:29:27.958Z,10.63
2019-03-30T09:32:13.263Z,10.80
2019-03-30T09:34:31.925Z,12.17
2019-03-30T09:37:02.847Z,10.40
2019-03-30T09:39:34.092Z,9.93
2019-03-30T09:42:05.088Z,9.90
2019-03-30T09:44:35.958Z,8.70
2019-03-30T09:47:07.059Z,8.13
2019-03-30T09:49:38.108Z,7.37
2019-03-30T09:52:08.931Z,9.07
2019-03-30T09:54:40.197Z,9.40
2019-03-30T09:57:11.499Z,9.37
2019-03-30T09:59:42.642Z,9.53
2019-03-30T10:02:14.708Z,9.57
2019-03-30T10:04:46.087Z,8.93
2019-03-30T10:07:16.910Z,9.60
2019-03-30T10:09:48.120Z,9.40
2019-03-30T10:12:18.974Z,8.60
2019-03-30T10:14:50.112Z,9.20
2019-03-30T10:17:21.043Z,7.90
2019-03-30T10:20:03.538Z,8.90
2019-03-30T10:22:24.519Z,8.00
2019-03-30T10:24:58.460Z,7.53
2019-03-30T10:27:28.488Z,9.13
2019-03-30T10:29:59.459Z,9.10
2019-03-30T10:32:30.659Z,7.80
2019-03-30T10:35:01.841Z,7.17
2019-03-30T10:37:32.823Z,8.50
2019-03-30T10:40:04.178Z,7.47
2019-03-30T10:42:35.101Z,8.73
2019-03-30T10:45:06.872Z,8.90
2019-03-30T10:47:37.783Z,8.70
2019-03-30T10:50:09.244Z,8.63
2019-03-30T10:52:40.501Z,8.83
2019-03-30T10:55:11.372Z,9.17
2019-03-30T10:57:40.713Z,8.57
2019-03-30T11:00:12.340Z,8.87
2019-03-30T11:02:43.531Z,8.90
2019-03-30T11:05:14.724Z,8.60
2019-03-30T11:07:45.976Z,9.37
2019-03-30T11:10:17.266Z,8.77
2019-03-30T11:12:48.224Z,9.67
2019-03-30T11:15:19.651Z,10.03
2019-03-30T11:17:50.587Z,10.43
2019-03-30T11:20:21.890Z,9.50
2019-03-30T11:22:52.988Z,9.50
2019-03-30T11:25:23.898Z,9.37
2019-03-30T11:27:54.952Z,8.40
2019-03-30T11:30:26.065Z,9.37
2019-03-30T11:32:56.940Z,9.33
2019-03-30T11:35:27.954Z,9.13
2019-03-30T11:37:59.062Z,9.23
2019-03-30T11:40:29.951Z,8.57
2019-03-30T11:43:00.889Z,9.13
2019-03-30T11:45:32.035Z,8.87
2019-03-30T11:48:03.162Z,9.97
2019-03-30T11:50:34.124Z,9.33
2019-03-30T11:53:05.055Z,8.13
2019-03-30T11:55:36.422Z,8.10
2019-03-30T11:58:09.441Z,7.00
2019-03-30T12:00:40.350Z,8.93
2019-03-30T12:03:11.289Z,7.73
2019-03-30T12:05:42.498Z,7.97
2019-03-30T12:08:13.377Z,8.10
2019-03-30T12:10:44.256Z,8.20
2019-03-30T12:13:15.546Z,8.43
2019-03-30T12:15:46.566Z,9.73
2019-03-30T12:18:18.456Z,7.73
2019-03-30T12:20:49.321Z,8.30
2019-03-30T12:23:20.308Z,9.23
2019-03-30T12:25:51.408Z,9.10
2019-03-30T12:28:22.298Z,9.53
2019-03-30T12:30:53.184Z,8.23
2019-03-30T12:33:24.538Z,8.53
2019-03-30T12:35:55.586Z,9.23
2019-03-30T12:38:26.460Z,7.77
2019-03-30T12:40:57.665Z,8.00
2019-03-30T12:43:28.739Z,8.20
2019-03-30T12:45:59.573Z,7.50
2019-03-30T12:48:30.692Z,9.10
2019-03-30T12:51:01.727Z,9.20
2019-03-30T12:53:32.781Z,8.93
2019-03-30T12:56:03.915Z,9.10
2019-03-30T12:58:35.156Z,8.63
2019-03-30T13:01:05.973Z,8.93
2019-03-30T13:03:37.071Z,8.83
2019-03-30T13:06:08.212Z,7.03
2019-03-30T13:08:39.069Z,8.27
2019-03-30T13:11:09.931Z,8.43
2019-03-30T13:13:41.115Z,10.63
2019-03-30T13:16:12.180Z,9.30
2019-03-30T13:18:43.129Z,8.93
2019-03-30T13:21:14.374Z,9.63
2019-03-30T13:23:45.548Z,8.77
2019-03-30T13:26:16.614Z,7.80
2019-03-30T13:28:47.594Z,7.90
2019-03-30T13:31:18.504Z,8.73
2019-03-30T13:33:49.682Z,6.53
2019-03-30T13:36:37.194Z,7.00
2019-03-30T13:39:08.696Z,8.37
2019-03-30T13:41:39.908Z,8.63
2019-03-30T13:44:10.818Z,7.70
2019-03-30T13:46:41.668Z,8.43
2019-03-30T13:49:12.625Z,9.03
2019-03-30T13:51:43.629Z,9.13
2019-03-30T13:54:14.509Z,7.23
2019-03-30T13:56:45.560Z,6.63
2019-03-30T13:59:16.405Z,7.77
2019-03-30T14:01:47.546Z,7.50
2019-03-30T14:04:18.670Z,8.50
2019-03-30T14:06:49.509Z,7.83
2019-03-30T14:09:22.016Z,8.03
2019-03-30T14:11:53.429Z,7.57
2019-03-30T14:14:24.286Z,7.17
2019-03-30T14:16:55.149Z,7.10
2019-03-30T14:19:26.118Z,8.70
2019-03-30T14:21:56.965Z,7.93
2019-03-30T14:24:27.875Z,8.60
2019-03-30T14:26:58.853Z,8.23
2019-03-30T14:29:30.131Z,9.23
2019-03-30T14:32:01.294Z,9.90
2019-03-30T14:34:32.355Z,8.27
2019-03-30T14:37:03.370Z,7.93
2019-03-30T14:39:34.468Z,9.70
2019-03-30T14:42:05.692Z,10.90
2019-03-30T14:44:37.511Z,7.30
2019-03-30T14:47:08.480Z,7.80
2019-03-30T14:49:39.294Z,9.67
2019-03-30T14:52:10.156Z,8.40
2019-03-30T14:54:52.229Z,8.67
2019-03-30T14:57:14.223Z,10.10
2019-03-30T14:59:45.373Z,10.50
2019-03-30T15:02:16.228Z,10.77
2019-03-30T15:04:47.064Z,9.60
2019-03-30T15:07:18.232Z,10.10
2019-03-30T15:09:49.159Z,11.20
2019-03-30T15:12:20.178Z,10.20
2019-03-30T15:14:51.331Z,10.20
2019-03-30T15:17:22.203Z,10.17
2019-03-30T15:19:53.096Z,9.80
2019-03-30T15:22:23.983Z,12.70
2019-03-30T15:24:55.104Z,14.20
2019-03-30T15:27:26.103Z,11.23
2019-03-30T15:29:57.199Z,10.30
2019-03-30T15:32:28.177Z,11.40
2019-03-30T15:34:59.335Z,10.03
2019-03-30T15:37:30.935Z,9.63
2019-03-30T15:40:01.753Z,11.13
2019-03-30T15:42:32.908Z,10.57
2019-03-30T15:45:03.859Z,9.90
2019-03-30T15:47:34.700Z,11.30
2019-03-30T15:50:06.500Z,11.43
2019-03-30T15:52:37.795Z,11.90
2019-03-30T15:55:09.040Z,10.67
2019-03-30T15:57:40.090Z,11.93
2019-03-30T16:00:15.368Z,10.20
2019-03-30T16:02:46.444Z,10.43
2019-03-30T16:05:17.670Z,10.43
2019-03-30T16:07:48.641Z,10.83
2019-03-30T16:10:19.838Z,11.43
2019-03-30T16:12:50.797Z,10.70
2019-03-30T16:15:21.617Z,10.80
2019-03-30T16:17:52.534Z,11.17
2019-03-30T16:20:23.533Z,11.17
2019-03-30T16:22:54.400Z,10.80
2019-03-30T16:25:25.271Z,11.20
2019-03-30T16:27:57.461Z,12.03
2019-03-30T16:30:28.545Z,11.20
2019-03-30T16:32:59.495Z,11.27
2019-03-30T16:35:30.576Z,11.03
2019-03-30T16:38:01.663Z,12.50
2019-03-30T16:40:32.860Z,13.13
2019-03-30T16:43:03.717Z,12.07
2019-03-30T16:45:34.561Z,12.47
2019-03-30T16:48:05.593Z,10.57
2019-03-30T16:50:36.538Z,10.70
2019-03-30T16:53:07.488Z,10.03
2019-03-30T16:55:38.812Z,12.30
2019-03-30T16:58:10.014Z,10.73
2019-03-30T17:00:55.777Z,11.93
2019-03-30T17:03:13.726Z,12.33
2019-03-30T17:05:44.781Z,11.83
2019-03-30T17:08:15.866Z,12.73
2019-03-30T17:10:47.219Z,10.93
2019-03-30T17:13:18.269Z,12.10
2019-03-30T17:15:49.097Z,12.70
2019-03-30T17:18:21.090Z,10.83
2019-03-30T17:20:52.257Z,14.10
2019-03-30T17:23:24.281Z,10.90
2019-03-30T17:25:55.104Z,11.80
2019-03-30T17:28:26.301Z,14.80
2019-03-30T17:30:57.236Z,13.17
2019-03-30T17:33:28.161Z,12.80
2019-03-30T17:35:59.386Z,13.60
2019-03-30T17:38:30.497Z,14.87
2019-03-30T17:41:02.700Z,13.87
2019-03-30T17:43:33.569Z,11.97
2019-03-30T17:46:04.397Z,12.97
2019-03-30T17:48:35.459Z,13.97
2019-03-30T17:51:06.353Z,13.43
2019-03-30T17:53:39.401Z,15.40
2019-03-30T17:56:10.288Z,15.00
2019-03-30T17:58:41.490Z,16.27
2019-03-30T18:01:15.593Z,15.60
2019-03-30T18:03:45.415Z,15.87
2019-03-30T18:06:16.692Z,20.30
2019-03-30T18:08:47.557Z,16.17
2019-03-30T18:11:18.721Z,16.33
2019-03-30T18:13:49.639Z,15.73
2019-03-30T18:16:22.420Z,18.63
2019-03-30T18:18:53.273Z,15.63
2019-03-30T18:21:24.252Z,16.17
2019-03-30T18:23:55.358Z,18.20
2019-03-30T18:26:27.588Z,15.07
2019-03-30T18:28:58.595Z,17.07
2019-03-30T18:31:29.930Z,15.83
2019-03-30T18:34:01.201Z,14.33
2019-03-30T18:36:33.195Z,15.63
2019-03-30T18:39:09.962Z,15.70
2019-03-30T18:41:38.576Z,15.00
2019-03-30T18:44:09.465Z,16.13
2019-03-30T18:46:40.358Z,18.03
2019-03-30T18:49:11.335Z,15.60
2019-03-30T18:51:44.703Z,15.60
2019-03-30T18:54:17.071Z,15.70
2019-03-30T18:56:47.944Z,26.53
2019-03-30T18:59:18.867Z,21.90
2019-03-30T19:01:50.023Z,20.57
2019-03-30T19:04:20.983Z,20.60
2019-03-30T19:06:51.918Z,25.40
2019-03-30T19:09:23.288Z,23.23
2019-03-30T19:11:54.102Z,26.37
2019-03-30T19:14:24.954Z,27.70
2019-03-30T19:16:55.850Z,26.37
2019-03-30T19:19:29.271Z,26.40
2019-03-30T19:22:01.741Z,28.07
2019-03-30T19:24:32.588Z,26.97
2019-03-30T19:27:03.531Z,26.47
2019-03-30T19:29:34.748Z,25.67
2019-03-30T19:32:05.573Z,25.50
2019-03-30T19:34:36.455Z,31.60
2019-03-30T19:37:07.759Z,30.10
2019-03-30T19:39:38.740Z,36.17
2019-03-30T19:42:09.547Z,31.20
2019-03-30T19:44:40.590Z,30.90
2019-03-30T19:47:11.526Z,29.87
2019-03-30T19:49:42.423Z,24.80
2019-03-30T19:52:13.295Z,23.53
2019-03-30T19:54:44.228Z,26.60
2019-03-30T19:57:15.548Z,26.90
2019-03-30T19:59:46.647Z,28.67
2019-03-30T20:02:17.523Z,32.10
2019-03-30T20:04:48.848Z,33.03
2019-03-30T20:07:20.024Z,35.83
2019-03-30T20:09:50.956Z,37.77
2019-03-30T20:12:22.023Z,33.70
2019-03-30T20:14:53.019Z,35.83
2019-03-30T20:17:23.824Z,36.07
2019-03-30T20:19:54.757Z,30.53
2019-03-30T20:22:25.781Z,33.37
2019-03-30T20:24:56.957Z,31.17
2019-03-30T20:27:28.041Z,28.60
2019-03-30T20:29:59.014Z,31.90
2019-03-30T20:32:30.136Z,30.03
2019-03-30T20:35:01.378Z,30.53
2019-03-30T20:37:32.261Z,29.07
2019-03-30T20:40:03.214Z,29.93
2019-03-30T20:42:34.321Z,31.17
2019-03-30T20:45:06.600Z,29.17
2019-03-30T20:47:37.455Z,25.10
2019-03-30T20:50:08.999Z,25.03
2019-03-30T20:52:39.814Z,26.00
2019-03-30T20:55:11.077Z,23.23
2019-03-30T20:57:41.904Z,25.70
2019-03-30T21:00:13.962Z,25.43
2019-03-30T21:02:45.241Z,26.30
2019-03-30T21:05:16.171Z,24.60
2019-03-30T21:07:47.053Z,23.33
2019-03-30T21:10:18.140Z,24.23
2019-03-30T21:12:49.005Z,24.53
2019-03-30T21:15:19.820Z,24.13
2019-03-30T21:17:51.083Z,23.13
2019-03-30T21:20:22.110Z,22.87
2019-03-30T21:22:53.041Z,20.87
2019-03-30T21:25:24.311Z,21.80
2019-03-30T21:27:55.606Z,22.27
2019-03-30T21:30:26.553Z,21.70
2019-03-30T21:32:57.812Z,21.77
2019-03-30T21:35:28.946Z,20.10
2019-03-30T21:37:59.792Z,20.20
2019-03-30T21:40:30.774Z,21.73
2019-03-30T21:43:01.930Z,21.73
2019-03-30T21:45:32.787Z,21.40
2019-03-30T21:48:03.765Z,22.43
2019-03-30T21:50:35.826Z,20.33
2019-03-30T21:53:06.687Z,20.63
2019-03-30T21:55:37.583Z,20.50
2019-03-30T21:58:08.839Z,20.97
2019-03-30T22:00:41.095Z,19.47
2019-03-30T22:03:12.259Z,21.40
2019-03-30T22:05:43.229Z,20.03
2019-03-30T22:08:17.026Z,18.93
2019-03-30T22:10:46.955Z,21.07
2019-03-30T22:13:21.273Z,20.37
2019-03-30T22:15:50.512Z,19.57
2019-03-30T22:18:21.687Z,19.63
2019-03-30T22:20:52.776Z,18.53
2019-03-30T22:23:23.633Z,21.07
2019-03-30T22:25:54.824Z,22.47
2019-03-30T22:28:25.892Z,21.77
2019-03-30T22:30:56.828Z,23.33
2019-03-30T22:33:30.793Z,21.40
2019-03-30T22:36:01.269Z,22.47
2019-03-30T22:38:32.453Z,20.17
2019-03-30T22:41:03.366Z,20.40
2019-03-30T22:43:34.212Z,20.37
2019-03-30T22:46:07.554Z,20.13
2019-03-30T22:48:38.119Z,19.20
2019-03-30T22:51:08.985Z,18.93
2019-03-30T22:53:40.050Z,19.93
2019-03-30T22:56:11.381Z,20.30
2019-03-30T22:58:43.129Z,18.97
2019-03-30T23:01:16.630Z,20.53
2019-03-30T23:03:49.180Z,19.40
2019-03-30T23:06:20.438Z,19.90
2019-03-30T23:08:51.626Z,18.90
2019-03-30T23:11:22.497Z,19.43
2019-03-30T23:13:53.490Z,20.07
2019-03-30T23:16:24.393Z,19.20
2019-03-30T23:18:55.252Z,20.83
2019-03-30T23:21:26.328Z,18.23
2019-03-30T23:23:58.405Z,20.43
2019-03-30T23:26:29.458Z,19.27
2019-03-30T23:29:00.339Z,18.93
2019-03-30T23:31:31.593Z,18.67
2019-03-30T23:34:02.638Z,18.80
2019-03-30T23:36:33.549Z,19.17
2019-03-30T23:39:06.208Z,17.43
2019-03-30T23:41:37.099Z,17.37
2019-03-30T23:44:07.981Z,17.30
2019-03-30T23:46:39.167Z,16.23
2019-03-30T23:49:11.311Z,16.83
2019-03-30T23:51:42.135Z,17.30
2019-03-30T23:54:16.229Z,19.27
2019-03-30T23:56:48.396Z,16.63
2019-03-30T23:59:19.273Z,17.50
